EW5678 Stony Brook NY US current weather conditions

sailwx.info

Wind from 139 at 8 knots gusting 13

Air temperature 23.9° C
Dewpoint 20.4° C

Last reported at 2020-Jul-13 14:04 UTC.
Time now 2020-Jul-13 14:55 UTC

Location: N 40°55' W 073°07'.
View on Google Maps.

See reports from other nearby stations

  
Tides and Currents Weather Stations Pressure Air Temp Water Temp Dewpoint Dewpoint Depression Visibility Wind Speed Wind Dir Waves Ship Positions
date/time (UTC)wind fromknots sea level pressurealtimeterstation pressurevisibilityair tempwater tempwave heightnotes
2020-Jul-13 14:04 139 8 gusting 13 23.9
2020-Jul-13 13:55 140 4 gusting 8 24.4
2020-Jul-13 13:45 140 8 gusting 13 23.9
2020-Jul-13 13:36 140 7 gusting 13 23.9
2020-Jul-13 13:27 140 6 gusting 10 24.4
2020-Jul-13 13:18 140 6 gusting 9 24.4
2020-Jul-13 13:09 140 3 gusting 8 25.6
2020-Jul-13 13:00 140 1 gusting 6 25.6
2020-Jul-13 12:51 140 1 gusting 5 25.6
2020-Jul-13 12:43 139 2 gusting 6 24.4
2020-Jul-13 12:34 140 2 gusting 5 24.4
2020-Jul-13 12:24 139 2 gusting 6 24.4
2020-Jul-13 12:15 140 2 gusting 6 23.9
2020-Jul-13 12:06 139 2 gusting 6 23.9
2020-Jul-13 11:57 140 1 gusting 4 23.9
2020-Jul-13 11:48 140 1 gusting 4 23.3
2020-Jul-13 11:39 140 0 gusting 2 23.3
2020-Jul-13 11:30 140 0 gusting 1 23.3
2020-Jul-13 11:21 140 1 gusting 2 22.8
2020-Jul-13 11:12 139 2 gusting 2 22.8
2020-Jul-13 11:03 139 2 gusting 4 22.8
2020-Jul-13 10:54 140 4 gusting 5 22.2
2020-Jul-13 10:45 140 4 gusting 5 22.2
2020-Jul-13 10:36 140 5 gusting 6 22.2
2020-Jul-13 10:27 140 6 gusting 8 22.2
2020-Jul-13 10:18 140 6 gusting 8 22.2
2020-Jul-13 10:09 140 6 gusting 6 22.8
2020-Jul-13 10:00 140 6 gusting 6 22.8
2020-Jul-13 09:51 139 6 gusting 8 22.8
2020-Jul-13 09:42 140 6 gusting 8 22.8
2020-Jul-13 09:33 140 7 gusting 9 22.8
2020-Jul-13 09:24 139 7 gusting 8 22.8
2020-Jul-13 09:16 139 7 gusting 8 23.3
2020-Jul-13 09:07 140 5 gusting 7 23.3
2020-Jul-13 08:58 140 2 gusting 5 23.3
2020-Jul-13 08:48 139 2 gusting 5 23.3
2020-Jul-13 08:39 140 2 gusting 4 23.3
2020-Jul-13 08:30 139 3 gusting 4 23.3
2020-Jul-13 08:21 139 2 gusting 4 23.9
2020-Jul-13 08:12 139 6 gusting 7 23.3
2020-Jul-13 08:03 139 8 gusting 11 23.3
2020-Jul-13 07:54 139 10 gusting 13 23.3
2020-Jul-13 07:45 139 11 gusting 13 23.3
2020-Jul-13 07:36 140 13 gusting 16 23.3
2020-Jul-13 07:27 139 12 gusting 16 23.3
2020-Jul-13 07:18 140 13 gusting 16 23.9
2020-Jul-13 07:09 139 13 gusting 17 23.9
2020-Jul-13 07:00 139 11 gusting 13 23.9
2020-Jul-13 06:51 139 9 gusting 12 24.4
2020-Jul-13 06:42 140 6 gusting 10 24.4
2020-Jul-13 06:33 140 4 gusting 8 25.0
2020-Jul-13 06:24 139 5 gusting 6 24.4
2020-Jul-13 06:15 140 3 gusting 6 24.4
2020-Jul-13 06:06 139 4 gusting 7 25.0
2020-Jul-13 05:57 139 5 gusting 9 25.0
2020-Jul-13 05:48 139 5 gusting 8 25.0
2020-Jul-13 05:39 140 3 gusting 6 25.0
2020-Jul-13 05:30 140 4 gusting 6 25.0
2020-Jul-13 05:21 140 4 gusting 6 25.0
2020-Jul-13 05:12 140 4 gusting 5 25.6
2020-Jul-13 05:03 140 3 gusting 5 25.6
2020-Jul-13 04:54 139 3 gusting 5 25.0
2020-Jul-13 04:46 139 2 gusting 4 25.0
2020-Jul-13 04:36 139 3 gusting 4 24.4
2020-Jul-13 04:27 140 3 gusting 5 24.4
2020-Jul-13 04:18 140 4 gusting 6 23.9
2020-Jul-13 04:09 139 5 gusting 7 23.9
2020-Jul-13 04:00 139 4 gusting 6 23.9
2020-Jul-13 03:51 139 5 gusting 7 23.9
2020-Jul-13 03:42 140 5 gusting 8 23.9
2020-Jul-13 03:33 139 9 gusting 14 24.4
2020-Jul-13 03:24 140 7 gusting 15 24.4
2020-Jul-13 03:15 139 7 gusting 15 25.0
2020-Jul-13 03:06 140 5 gusting 7 24.4
2020-Jul-13 02:57 140 4 gusting 8 24.4
2020-Jul-13 02:48 140 3 gusting 7 24.4
2020-Jul-13 02:39 140 7 gusting 11 24.4
2020-Jul-13 02:30 139 9 gusting 13 24.4
2020-Jul-13 02:21 139 10 gusting 13 24.4
2020-Jul-13 02:12 140 9 gusting 13 24.4
2020-Jul-13 02:03 140 7 gusting 12 24.4
2020-Jul-13 01:54 140 7 gusting 13 24.4
2020-Jul-13 01:45 140 9 gusting 13 25.0
2020-Jul-13 01:36 140 9 gusting 13 25.0
2020-Jul-13 01:27 139 8 gusting 12 24.4
2020-Jul-13 01:18 139 8 gusting 11 24.4
2020-Jul-13 01:09 139 7 gusting 13 24.4
2020-Jul-13 01:00 140 6 gusting 11 25.0
2020-Jul-13 00:51 140 7 gusting 11 25.0
2020-Jul-13 00:42 140 6 gusting 11 25.0
2020-Jul-13 00:33 140 7 gusting 13 25.0
2020-Jul-13 00:24 140 8 gusting 13 25.0
2020-Jul-13 00:15 140 7 gusting 13 25.6
2020-Jul-13 00:06 140 8 gusting 14 25.6
2020-Jul-12 23:57 139 7 gusting 17 25.6
2020-Jul-12 23:48 139 6 gusting 14 26.1
2020-Jul-12 23:40 139 7 gusting 15 26.7
2020-Jul-12 23:30 139 8 gusting 15 26.7
2020-Jul-12 23:21 139 8 gusting 15 26.7
2020-Jul-12 23:12 139 8 gusting 15 27.2
2020-Jul-12 23:03 140 7 gusting 13 27.2
2020-Jul-12 22:54 139 7 gusting 14 27.8
2020-Jul-12 22:45 139 5 gusting 11 27.8
2020-Jul-12 22:36 139 6 gusting 14 28.3
2020-Jul-12 22:27 140 10 gusting 15 27.8
2020-Jul-12 22:18 139 6 gusting 18 28.3
2020-Jul-12 22:10 140 7 gusting 15 28.3
2020-Jul-12 22:00 139 8 gusting 16 28.3
2020-Jul-12 21:51 139 8 gusting 16 28.3
2020-Jul-12 21:42 139 10 gusting 17 28.3
2020-Jul-12 21:33 139 7 gusting 14 28.3
2020-Jul-12 21:24 139 6 gusting 13 28.3
2020-Jul-12 21:15 139 8 gusting 16 28.3
2020-Jul-12 21:06 139 7 gusting 15 28.3
2020-Jul-12 20:57 139 5 gusting 13 28.3
2020-Jul-12 20:48 139 4 gusting 11 28.3
2020-Jul-12 20:39 139 4 gusting 11 28.3
2020-Jul-12 20:30 139 6 gusting 9 28.3
2020-Jul-12 20:21 139 3 gusting 6 28.3
2020-Jul-12 20:12 139 6 gusting 11 28.3
2020-Jul-12 20:03 139 8 gusting 13 28.3
2020-Jul-12 19:54 139 9 gusting 13 28.3
2020-Jul-12 19:45 139 7 gusting 13 28.3
2020-Jul-12 19:36 139 10 gusting 13 27.8
2020-Jul-12 19:27 139 10 gusting 15 27.8
2020-Jul-12 19:18 139 9 gusting 14 27.8
2020-Jul-12 19:09 139 8 gusting 16 27.8
2020-Jul-12 19:00 139 11 gusting 18 27.8
2020-Jul-12 18:51 139 10 gusting 15 27.8
2020-Jul-12 18:42 139 12 gusting 16 27.2
2020-Jul-12 18:33 139 9 gusting 15 27.2
2020-Jul-12 18:24 139 13 gusting 17 27.2
2020-Jul-12 18:15 139 11 gusting 19 26.7
2020-Jul-12 18:06 139 13 gusting 19 26.7
2020-Jul-12 17:57 139 13 gusting 19 26.7
2020-Jul-12 17:48 139 13 gusting 19 26.1
2020-Jul-12 17:39 139 13 gusting 18 26.1
2020-Jul-12 17:30 139 13 gusting 18 26.1
2020-Jul-12 17:21 139 12 gusting 18 26.1
2020-Jul-12 17:12 139 12 gusting 19 26.1
2020-Jul-12 17:03 139 13 gusting 19 26.1
2020-Jul-12 16:54 139 16 gusting 22 25.6
2020-Jul-12 16:45 139 13 gusting 20 25.6
2020-Jul-12 16:36 139 14 gusting 21 25.6
2020-Jul-12 16:27 139 14 gusting 20 25.6
2020-Jul-12 16:18 139 14 gusting 20 25.6
2020-Jul-12 16:10 139 16 gusting 20 25.0
2020-Jul-12 16:00 139 14 gusting 19 25.0
2020-Jul-12 15:51 139 13 gusting 19 25.0
2020-Jul-12 15:43 139 13 gusting 19 25.0
2020-Jul-12 15:33 139 11 gusting 18 25.0
2020-Jul-12 15:24 139 13 gusting 19 24.4
2020-Jul-12 15:15 139 11 gusting 19 24.4
2020-Jul-12 15:06 139 11 gusting 17 24.4
2020-Jul-12 14:57 139 12 gusting 18 24.4
2020-Jul-12 14:48 139 13 gusting 22 24.4
2020-Jul-12 14:39 139 13 gusting 20 23.9
2020-Jul-12 14:30 139 16 gusting 22 23.9
2020-Jul-12 14:21 139 14 gusting 19 23.9
2020-Jul-12 14:12 139 13 gusting 21 23.9
2020-Jul-12 14:03 139 12 gusting 17 23.9
2020-Jul-12 13:54 139 12 gusting 21 23.9
2020-Jul-12 13:45 139 14 gusting 22 23.9
2020-Jul-12 13:36 139 10 gusting 20 23.9
2020-Jul-12 13:27 139 12 gusting 20 23.9
2020-Jul-12 13:18 139 11 gusting 19 23.9
2020-Jul-12 13:09 139 7 gusting 18 23.9
2020-Jul-12 13:00 139 9 gusting 15 23.9
2020-Jul-12 12:51 139 7 gusting 16 23.9
2020-Jul-12 12:42 139 7 gusting 14 23.3
2020-Jul-12 12:33 140 7 gusting 18 23.3
2020-Jul-12 12:24 140 8 gusting 18 23.3
2020-Jul-12 12:15 140 6 gusting 15 23.3
2020-Jul-12 12:06 140 6 gusting 13 23.3
2020-Jul-12 11:57 140 6 gusting 13 23.3
2020-Jul-12 11:48 139 6 gusting 12 22.8
2020-Jul-12 11:40 140 6 gusting 13 22.8
2020-Jul-12 11:30 140 6 gusting 13 22.8
2020-Jul-12 11:21 140 6 gusting 13 22.8
2020-Jul-12 11:12 140 7 gusting 13 22.8
2020-Jul-12 11:03 140 9 gusting 15 22.2
2020-Jul-12 10:54 139 9 gusting 15 22.2
2020-Jul-12 10:45 140 6 gusting 12 22.2
2020-Jul-12 10:36 140 8 gusting 13 21.7
2020-Jul-12 10:27 140 8 gusting 13 21.7
2020-Jul-12 10:18 139 9 gusting 13 21.7
2020-Jul-12 10:09 140 8 gusting 14 22.2
2020-Jul-12 10:00 139 8 gusting 15 22.2
2020-Jul-12 09:51 139 8 gusting 14 21.7
2020-Jul-12 09:42 140 7 gusting 13 21.7
2020-Jul-12 09:33 140 8 gusting 14 21.7
2020-Jul-12 09:24 140 7 gusting 12 21.7
2020-Jul-12 09:15 140 7 gusting 13 22.2
2020-Jul-12 09:06 139 8 gusting 14 22.2
2020-Jul-12 08:57 139 9 gusting 19 22.2
2020-Jul-12 08:49 139 8 gusting 15 22.2
2020-Jul-12 08:40 139 7 gusting 15 22.2
2020-Jul-12 08:31 139 9 gusting 16 22.2
2020-Jul-12 08:21 139 10 gusting 18 22.2
2020-Jul-12 08:13 139 9 gusting 18 22.2
2020-Jul-12 08:03 139 10 gusting 19 22.2
2020-Jul-12 07:54 139 9 gusting 16 22.2
2020-Jul-12 07:45 139 9 gusting 18 22.2
2020-Jul-12 07:36 139 9 gusting 19 22.8
2020-Jul-12 07:27 140 9 gusting 19 22.8
2020-Jul-12 07:18 140 9 gusting 15 22.8
2020-Jul-12 07:09 140 7 gusting 13 22.8
2020-Jul-12 07:00 140 7 gusting 14 22.8
2020-Jul-12 06:52 140 7 gusting 14 22.8
2020-Jul-12 06:42 140 8 gusting 16 22.8
2020-Jul-12 06:33 140 8 gusting 16 23.3
2020-Jul-12 06:24 140 7 gusting 14 23.3
2020-Jul-12 06:16 140 6 gusting 11 22.8
2020-Jul-12 06:06 140 7 gusting 12 23.3
2020-Jul-12 05:57 140 8 gusting 13 23.3
2020-Jul-12 05:48 140 8 gusting 13 23.3
2020-Jul-12 05:39 140 8 gusting 14 23.3
2020-Jul-12 05:30 140 8 gusting 13 23.3
2020-Jul-12 05:21 140 10 gusting 13 23.3
2020-Jul-12 05:12 140 10 gusting 13 22.8
2020-Jul-12 05:04 140 10 gusting 15 22.8
2020-Jul-12 04:54 140 9 gusting 14 22.8
2020-Jul-12 04:45 140 8 gusting 13 22.8
2020-Jul-12 04:37 140 8 gusting 13 22.8
2020-Jul-12 04:27 140 6 gusting 12 22.8
2020-Jul-12 04:18 140 6 gusting 12 22.8
2020-Jul-12 04:09 140 6 gusting 12 22.8
2020-Jul-12 04:00 140 5 gusting 11 22.8
2020-Jul-12 03:52 140 4 gusting 10 22.8
2020-Jul-12 03:43 140 4 gusting 7 22.8
2020-Jul-12 03:33 140 4 gusting 10 22.8
2020-Jul-12 03:24 140 4 gusting 8 22.8
2020-Jul-12 03:16 140 4 gusting 7 22.8
2020-Jul-12 03:06 140 5 gusting 8 22.8
2020-Jul-12 02:57 140 2 gusting 6 23.3
2020-Jul-12 02:49 140 1 gusting 4 23.3
2020-Jul-12 02:39 140 2 gusting 6 22.8
2020-Jul-12 02:30 140 6 gusting 13 22.8
2020-Jul-12 02:21 140 7 gusting 15 22.8
2020-Jul-12 02:12 140 7 gusting 13 22.8
2020-Jul-12 02:04 140 6 gusting 13 22.8
2020-Jul-12 01:54 140 5 gusting 13 22.8
2020-Jul-12 01:45 140 5 gusting 13 22.8
2020-Jul-12 01:36 140 5 gusting 11 22.8
2020-Jul-12 01:27 140 6 gusting 11 22.8
2020-Jul-12 01:18 140 6 gusting 13 22.8
2020-Jul-12 01:10 140 8 gusting 15 22.8
2020-Jul-12 01:01 140 8 gusting 18 22.8
2020-Jul-12 00:52 140 10 gusting 16 22.2
2020-Jul-12 00:42 140 11 gusting 20 22.2
2020-Jul-12 00:33 140 8 gusting 18 22.2
2020-Jul-12 00:24 140 7 gusting 19 22.2
2020-Jul-12 00:15 140 7 gusting 18 22.2
2020-Jul-12 00:06 140 7 gusting 18 22.8
2020-Jul-11 23:57 140 6 gusting 16 22.8
2020-Jul-11 23:48 140 7 gusting 18 22.8
2020-Jul-11 23:40 140 7 gusting 19 22.8
2020-Jul-11 23:31 140 7 gusting 16 22.8
2020-Jul-11 23:22 140 8 gusting 17 22.8
2020-Jul-11 23:12 140 6 gusting 17 22.8
2020-Jul-11 23:04 140 8 gusting 19 22.8
2020-Jul-11 22:54 140 7 gusting 19 22.8
2020-Jul-11 22:45 140 9 gusting 19 23.3
2020-Jul-11 22:36 140 10 gusting 18 23.3
2020-Jul-11 22:27 140 8 gusting 18 23.3
2020-Jul-11 22:18 140 7 gusting 19 23.3
2020-Jul-11 22:09 140 7 gusting 16 23.3
2020-Jul-11 22:01 140 6 gusting 16 23.9
2020-Jul-11 21:51 140 6 gusting 14 23.9
2020-Jul-11 21:42 140 8 gusting 18 23.9
2020-Jul-11 21:34 140 10 gusting 21 24.4
2020-Jul-11 21:24 140 7 gusting 18 24.4
2020-Jul-11 21:15 140 8 gusting 16 24.4
2020-Jul-11 21:07 140 9 gusting 18 25.0
2020-Jul-11 20:57 140 7 gusting 15 25.0
2020-Jul-11 20:48 140 8 gusting 18 25.0
2020-Jul-11 20:39 140 9 gusting 19 25.0
2020-Jul-11 20:31 140 10 gusting 19 24.4
2020-Jul-11 20:21 140 7 gusting 17 24.4
2020-Jul-11 20:12 140 6 gusting 16 24.4
2020-Jul-11 20:03 140 7 gusting 18 24.4
2020-Jul-11 19:55 140 8 gusting 19 25.0
2020-Jul-11 19:46 140 7 gusting 17 25.0
2020-Jul-11 19:37 140 7 gusting 16 25.6
2020-Jul-11 19:27 140 6 gusting 16 25.6
2020-Jul-11 19:18 140 8 gusting 19 25.6
2020-Jul-11 19:09 140 8 gusting 18 25.6
2020-Jul-11 19:01 140 11 gusting 20 25.0
2020-Jul-11 18:52 140 9 gusting 17 25.6
2020-Jul-11 18:42 140 9 gusting 19 25.6
2020-Jul-11 18:33 140 8 gusting 17 25.6
2020-Jul-11 18:24 140 7 gusting 15 25.6
2020-Jul-11 18:15 139 9 gusting 18 25.0
2020-Jul-11 18:06 139 9 gusting 18 25.6
2020-Jul-11 17:57 140 8 gusting 17 26.1
2020-Jul-11 17:48 140 6 gusting 16 26.7
2020-Jul-11 17:39 140 7 gusting 17 26.7
2020-Jul-11 17:30 140 9 gusting 16 26.7
2020-Jul-11 17:22 140 8 gusting 19 26.7
2020-Jul-11 17:13 140 6 gusting 14 26.7
2020-Jul-11 17:03 140 6 gusting 16 26.1
2020-Jul-11 16:55 140 5 gusting 11 26.1
2020-Jul-11 16:45 140 7 gusting 13 25.6
2020-Jul-11 16:36 140 6 gusting 15 25.6
2020-Jul-11 16:27 140 8 gusting 15 25.6
2020-Jul-11 16:19 140 8 gusting 17 26.1
2020-Jul-11 16:09 140 6 gusting 16 26.7
2020-Jul-11 16:01 140 7 gusting 15 26.7
2020-Jul-11 15:52 140 6 gusting 13 26.7
2020-Jul-11 15:42 139 5 gusting 12 26.7
2020-Jul-11 15:33 140 6 gusting 13 26.1
2020-Jul-11 15:25 140 6 gusting 14 26.1
2020-Jul-11 15:15 140 5 gusting 12 25.6
2020-Jul-11 15:06 140 4 gusting 11 25.0
2020-Jul-11 14:57 140 5 gusting 11 24.4
2020-Jul-11 14:48 140 5 gusting 11 24.4
2020-Jul-11 14:39 140 4 gusting 10 24.4
2020-Jul-11 14:30 140 4 gusting 10 23.9
2020-Jul-11 14:21 140 4 gusting 10 23.3
2020-Jul-11 14:12 140 5 gusting 10 23.3
2020-Jul-11 14:04 140 4 gusting 9 23.3